sensor_id;sensor_type;location;lat;lon;timestamp;P1;durP1;ratioP1;P2;durP2;ratioP2
39356;SDS011;25077;50.302;18.996;2022-08-06T00:02:10;13.20;;;8.20;;
39356;SDS011;25077;50.302;18.996;2022-08-06T00:05:12;16.13;;;8.48;;
39356;SDS011;25077;50.302;18.996;2022-08-06T00:08:14;12.15;;;7.97;;
39356;SDS011;25077;50.302;18.996;2022-08-06T00:11:18;10.00;;;7.68;;
39356;SDS011;25077;50.302;18.996;2022-08-06T00:14:20;16.30;;;8.73;;
39356;SDS011;25077;50.302;18.996;2022-08-06T00:17:22;9.55;;;7.50;;
39356;SDS011;25077;50.302;18.996;2022-08-06T00:20:25;12.07;;;7.40;;
39356;SDS011;25077;50.302;18.996;2022-08-06T00:23:27;10.73;;;7.43;;
39356;SDS011;25077;50.302;18.996;2022-08-06T00:26:30;10.27;;;7.35;;
39356;SDS011;25077;50.302;18.996;2022-08-06T00:29:32;11.10;;;7.20;;
39356;SDS011;25077;50.302;18.996;2022-08-06T00:32:34;12.07;;;7.60;;
39356;SDS011;25077;50.302;18.996;2022-08-06T00:35:37;14.98;;;7.50;;
39356;SDS011;25077;50.302;18.996;2022-08-06T00:38:38;16.80;;;7.95;;
39356;SDS011;25077;50.302;18.996;2022-08-06T00:41:42;10.23;;;7.35;;
39356;SDS011;25077;50.302;18.996;2022-08-06T00:44:44;11.35;;;7.85;;
39356;SDS011;25077;50.302;18.996;2022-08-06T00:47:46;10.65;;;8.13;;
39356;SDS011;25077;50.302;18.996;2022-08-06T00:50:48;14.50;;;7.55;;
39356;SDS011;25077;50.302;18.996;2022-08-06T00:53:50;11.75;;;7.55;;
39356;SDS011;25077;50.302;18.996;2022-08-06T00:56:54;9.95;;;7.47;;
39356;SDS011;25077;50.302;18.996;2022-08-06T00:59:56;13.50;;;8.18;;
39356;SDS011;25077;50.302;18.996;2022-08-06T01:02:58;13.30;;;8.30;;
39356;SDS011;25077;50.302;18.996;2022-08-06T01:05:59;13.80;;;8.17;;
39356;SDS011;25077;50.302;18.996;2022-08-06T01:09:01;13.80;;;8.00;;
39356;SDS011;25077;50.302;18.996;2022-08-06T01:12:05;12.03;;;7.93;;
39356;SDS011;25077;50.302;18.996;2022-08-06T01:15:08;14.80;;;8.37;;
39356;SDS011;25077;50.302;18.996;2022-08-06T01:18:10;15.57;;;8.53;;
39356;SDS011;25077;50.302;18.996;2022-08-06T01:21:21;17.63;;;9.63;;
39356;SDS011;25077;50.302;18.996;2022-08-06T01:24:50;19.47;;;9.13;;
39356;SDS011;25077;50.302;18.996;2022-08-06T01:28:07;16.73;;;9.73;;
39356;SDS011;25077;50.302;18.996;2022-08-06T01:31:13;16.67;;;9.70;;
39356;SDS011;25077;50.302;18.996;2022-08-06T01:34:20;20.00;;;12.67;;
39356;SDS011;25077;50.302;18.996;2022-08-06T01:37:28;27.30;;;16.40;;
39356;SDS011;25077;50.302;18.996;2022-08-06T01:40:34;22.27;;;13.30;;
39356;SDS011;25077;50.302;18.996;2022-08-06T01:43:40;21.40;;;15.00;;
39356;SDS011;25077;50.302;18.996;2022-08-06T01:46:48;25.73;;;16.40;;
39356;SDS011;25077;50.302;18.996;2022-08-06T01:49:56;23.57;;;14.60;;
39356;SDS011;25077;50.302;18.996;2022-08-06T01:53:01;21.77;;;14.43;;
39356;SDS011;25077;50.302;18.996;2022-08-06T01:56:06;16.87;;;11.87;;
39356;SDS011;25077;50.302;18.996;2022-08-06T01:59:11;17.47;;;12.30;;
39356;SDS011;25077;50.302;18.996;2022-08-06T02:02:18;15.83;;;11.60;;
39356;SDS011;25077;50.302;18.996;2022-08-06T02:05:22;14.47;;;9.13;;
39356;SDS011;25077;50.302;18.996;2022-08-06T02:08:29;16.60;;;8.93;;
39356;SDS011;25077;50.302;18.996;2022-08-06T02:11:35;14.23;;;8.80;;
39356;SDS011;25077;50.302;18.996;2022-08-06T02:14:42;14.43;;;8.80;;
39356;SDS011;25077;50.302;18.996;2022-08-06T02:17:49;12.10;;;7.50;;
39356;SDS011;25077;50.302;18.996;2022-08-06T02:20:54;10.97;;;7.50;;
39356;SDS011;25077;50.302;18.996;2022-08-06T02:23:59;14.43;;;7.67;;
39356;SDS011;25077;50.302;18.996;2022-08-06T02:27:04;8.93;;;7.37;;
39356;SDS011;25077;50.302;18.996;2022-08-06T02:30:10;10.07;;;6.50;;
39356;SDS011;25077;50.302;18.996;2022-08-06T02:33:13;10.43;;;7.47;;
39356;SDS011;25077;50.302;18.996;2022-08-06T02:36:16;9.10;;;5.63;;
39356;SDS011;25077;50.302;18.996;2022-08-06T02:39:22;10.53;;;5.67;;
39356;SDS011;25077;50.302;18.996;2022-08-06T02:42:27;11.53;;;6.00;;
39356;SDS011;25077;50.302;18.996;2022-08-06T02:45:35;9.13;;;5.67;;
39356;SDS011;25077;50.302;18.996;2022-08-06T02:48:42;10.47;;;5.53;;
39356;SDS011;25077;50.302;18.996;2022-08-06T02:51:51;7.83;;;5.57;;
39356;SDS011;25077;50.302;18.996;2022-08-06T02:54:56;10.53;;;5.00;;
39356;SDS011;25077;50.302;18.996;2022-08-06T02:58:05;11.57;;;5.10;;
39356;SDS011;25077;50.302;18.996;2022-08-06T03:01:14;10.47;;;4.50;;
39356;SDS011;25077;50.302;18.996;2022-08-06T03:04:20;10.37;;;4.80;;
39356;SDS011;25077;50.302;18.996;2022-08-06T03:07:25;6.47;;;4.80;;
39356;SDS011;25077;50.302;18.996;2022-08-06T03:10:30;6.17;;;4.63;;
39356;SDS011;25077;50.302;18.996;2022-08-06T03:13:34;12.97;;;4.77;;
39356;SDS011;25077;50.302;18.996;2022-08-06T03:16:40;5.70;;;4.40;;
39356;SDS011;25077;50.302;18.996;2022-08-06T03:19:43;5.33;;;4.33;;
39356;SDS011;25077;50.302;18.996;2022-08-06T03:22:48;5.03;;;3.90;;
39356;SDS011;25077;50.302;18.996;2022-08-06T03:25:52;11.07;;;4.60;;
39356;SDS011;25077;50.302;18.996;2022-08-06T03:28:55;5.77;;;3.90;;
39356;SDS011;25077;50.302;18.996;2022-08-06T03:32:01;7.37;;;4.30;;
39356;SDS011;25077;50.302;18.996;2022-08-06T03:35:04;8.90;;;4.83;;
39356;SDS011;25077;50.302;18.996;2022-08-06T03:38:08;8.57;;;4.10;;
39356;SDS011;25077;50.302;18.996;2022-08-06T03:41:11;7.13;;;3.93;;
39356;SDS011;25077;50.302;18.996;2022-08-06T03:44:14;6.23;;;4.07;;
39356;SDS011;25077;50.302;18.996;2022-08-06T03:47:19;5.83;;;3.90;;
39356;SDS011;25077;50.302;18.996;2022-08-06T03:50:25;6.13;;;3.77;;
39356;SDS011;25077;50.302;18.996;2022-08-06T03:53:31;8.67;;;4.00;;
39356;SDS011;25077;50.302;18.996;2022-08-06T03:56:37;11.97;;;4.83;;
39356;SDS011;25077;50.302;18.996;2022-08-06T03:59:43;6.60;;;3.97;;
39356;SDS011;25077;50.302;18.996;2022-08-06T04:02:49;7.90;;;4.20;;
39356;SDS011;25077;50.302;18.996;2022-08-06T04:05:54;12.23;;;4.00;;
39356;SDS011;25077;50.302;18.996;2022-08-06T04:08:57;7.37;;;4.40;;
39356;SDS011;25077;50.302;18.996;2022-08-06T04:12:01;5.27;;;4.23;;
39356;SDS011;25077;50.302;18.996;2022-08-06T04:15:05;4.83;;;4.33;;
39356;SDS011;25077;50.302;18.996;2022-08-06T04:18:10;7.00;;;4.27;;
39356;SDS011;25077;50.302;18.996;2022-08-06T04:21:15;8.17;;;3.97;;
39356;SDS011;25077;50.302;18.996;2022-08-06T04:24:20;6.40;;;4.23;;
39356;SDS011;25077;50.302;18.996;2022-08-06T04:27:22;4.63;;;3.93;;
39356;SDS011;25077;50.302;18.996;2022-08-06T04:30:25;5.30;;;3.60;;
39356;SDS011;25077;50.302;18.996;2022-08-06T04:33:30;5.47;;;4.20;;
39356;SDS011;25077;50.302;18.996;2022-08-06T04:36:35;11.93;;;4.40;;
39356;SDS011;25077;50.302;18.996;2022-08-06T04:39:37;6.50;;;3.83;;
39356;SDS011;25077;50.302;18.996;2022-08-06T04:42:40;10.30;;;4.53;;
39356;SDS011;25077;50.302;18.996;2022-08-06T04:45:42;8.43;;;4.43;;
39356;SDS011;25077;50.302;18.996;2022-08-06T04:48:47;5.43;;;3.93;;
39356;SDS011;25077;50.302;18.996;2022-08-06T04:51:49;9.83;;;4.57;;
39356;SDS011;25077;50.302;18.996;2022-08-06T04:54:51;7.77;;;4.57;;
39356;SDS011;25077;50.302;18.996;2022-08-06T04:57:53;10.37;;;4.30;;
39356;SDS011;25077;50.302;18.996;2022-08-06T05:00:55;5.73;;;3.80;;
39356;SDS011;25077;50.302;18.996;2022-08-06T05:03:58;5.33;;;3.93;;
39356;SDS011;25077;50.302;18.996;2022-08-06T05:07:01;11.27;;;3.97;;
39356;SDS011;25077;50.302;18.996;2022-08-06T05:10:11;9.03;;;4.33;;
39356;SDS011;25077;50.302;18.996;2022-08-06T05:13:13;5.80;;;3.90;;
39356;SDS011;25077;50.302;18.996;2022-08-06T05:16:17;4.23;;;3.80;;
39356;SDS011;25077;50.302;18.996;2022-08-06T05:19:28;10.10;;;4.10;;
39356;SDS011;25077;50.302;18.996;2022-08-06T05:22:35;7.17;;;4.10;;
39356;SDS011;25077;50.302;18.996;2022-08-06T05:25:38;10.00;;;4.37;;
39356;SDS011;25077;50.302;18.996;2022-08-06T05:28:41;7.63;;;4.00;;
39356;SDS011;25077;50.302;18.996;2022-08-06T05:31:43;6.90;;;3.90;;
39356;SDS011;25077;50.302;18.996;2022-08-06T05:34:47;5.33;;;3.90;;
39356;SDS011;25077;50.302;18.996;2022-08-06T05:37:49;7.13;;;3.60;;
39356;SDS011;25077;50.302;18.996;2022-08-06T05:40:51;4.53;;;4.00;;
39356;SDS011;25077;50.302;18.996;2022-08-06T05:43:54;7.20;;;3.30;;
39356;SDS011;25077;50.302;18.996;2022-08-06T05:46:56;5.43;;;3.70;;
39356;SDS011;25077;50.302;18.996;2022-08-06T05:50:04;5.77;;;3.70;;
39356;SDS011;25077;50.302;18.996;2022-08-06T05:53:08;4.80;;;3.57;;
39356;SDS011;25077;50.302;18.996;2022-08-06T05:56:14;6.23;;;3.80;;
39356;SDS011;25077;50.302;18.996;2022-08-06T05:59:21;5.67;;;3.63;;
39356;SDS011;25077;50.302;18.996;2022-08-06T06:02:26;8.57;;;3.77;;
39356;SDS011;25077;50.302;18.996;2022-08-06T06:05:31;6.17;;;3.27;;
39356;SDS011;25077;50.302;18.996;2022-08-06T06:08:34;6.53;;;3.47;;
39356;SDS011;25077;50.302;18.996;2022-08-06T06:11:36;5.60;;;3.60;;
39356;SDS011;25077;50.302;18.996;2022-08-06T06:14:40;4.43;;;3.27;;
39356;SDS011;25077;50.302;18.996;2022-08-06T06:17:48;4.90;;;3.70;;
39356;SDS011;25077;50.302;18.996;2022-08-06T06:21:05;4.70;;;3.57;;
39356;SDS011;25077;50.302;18.996;2022-08-06T06:24:16;3.97;;;3.00;;
39356;SDS011;25077;50.302;18.996;2022-08-06T06:27:24;5.33;;;2.97;;
39356;SDS011;25077;50.302;18.996;2022-08-06T06:30:37;3.27;;;2.73;;
39356;SDS011;25077;50.302;18.996;2022-08-06T06:33:49;4.23;;;3.20;;
39356;SDS011;25077;50.302;18.996;2022-08-06T06:37:03;4.45;;;3.00;;
39356;SDS011;25077;50.302;18.996;2022-08-06T06:40:14;3.97;;;2.90;;
39356;SDS011;25077;50.302;18.996;2022-08-06T06:43:29;3.80;;;3.00;;
39356;SDS011;25077;50.302;18.996;2022-08-06T06:46:39;3.43;;;2.80;;
39356;SDS011;25077;50.302;18.996;2022-08-06T06:49:49;3.33;;;3.03;;
39356;SDS011;25077;50.302;18.996;2022-08-06T06:52:55;3.43;;;3.13;;
39356;SDS011;25077;50.302;18.996;2022-08-06T06:55:58;4.00;;;2.85;;
39356;SDS011;25077;50.302;18.996;2022-08-06T06:59:03;4.20;;;2.97;;
39356;SDS011;25077;50.302;18.996;2022-08-06T07:02:10;3.70;;;2.90;;
39356;SDS011;25077;50.302;18.996;2022-08-06T07:05:18;3.50;;;2.90;;
39356;SDS011;25077;50.302;18.996;2022-08-06T07:08:23;3.63;;;3.30;;
39356;SDS011;25077;50.302;18.996;2022-08-06T07:11:28;5.10;;;3.17;;
39356;SDS011;25077;50.302;18.996;2022-08-06T07:14:32;4.10;;;3.20;;
39356;SDS011;25077;50.302;18.996;2022-08-06T07:17:38;6.30;;;3.37;;
39356;SDS011;25077;50.302;18.996;2022-08-06T07:20:42;3.73;;;2.90;;
39356;SDS011;25077;50.302;18.996;2022-08-06T07:23:47;3.23;;;2.80;;
39356;SDS011;25077;50.302;18.996;2022-08-06T07:26:51;3.57;;;2.93;;
39356;SDS011;25077;50.302;18.996;2022-08-06T07:29:56;3.17;;;2.50;;
39356;SDS011;25077;50.302;18.996;2022-08-06T07:32:59;4.60;;;2.23;;
39356;SDS011;25077;50.302;18.996;2022-08-06T07:36:01;2.97;;;2.20;;
39356;SDS011;25077;50.302;18.996;2022-08-06T07:39:07;2.23;;;1.80;;
39356;SDS011;25077;50.302;18.996;2022-08-06T07:42:12;3.67;;;1.77;;
39356;SDS011;25077;50.302;18.996;2022-08-06T07:45:16;3.20;;;1.97;;
39356;SDS011;25077;50.302;18.996;2022-08-06T07:48:22;3.33;;;2.23;;
39356;SDS011;25077;50.302;18.996;2022-08-06T07:51:29;4.33;;;2.97;;
39356;SDS011;25077;50.302;18.996;2022-08-06T07:54:37;3.80;;;2.10;;
39356;SDS011;25077;50.302;18.996;2022-08-06T07:57:41;2.13;;;1.30;;
39356;SDS011;25077;50.302;18.996;2022-08-06T08:00:44;3.77;;;1.10;;
39356;SDS011;25077;50.302;18.996;2022-08-06T08:03:48;1.27;;;0.90;;
39356;SDS011;25077;50.302;18.996;2022-08-06T08:07:09;1.40;;;0.70;;
39356;SDS011;25077;50.302;18.996;2022-08-06T08:10:13;3.67;;;0.80;;
39356;SDS011;25077;50.302;18.996;2022-08-06T08:13:16;6.73;;;1.53;;
39356;SDS011;25077;50.302;18.996;2022-08-06T08:16:19;3.80;;;1.27;;
39356;SDS011;25077;50.302;18.996;2022-08-06T08:19:23;0.77;;;0.70;;
39356;SDS011;25077;50.302;18.996;2022-08-06T08:22:28;2.80;;;0.90;;
39356;SDS011;25077;50.302;18.996;2022-08-06T08:25:31;1.90;;;1.00;;
39356;SDS011;25077;50.302;18.996;2022-08-06T08:28:34;2.63;;;0.90;;
39356;SDS011;25077;50.302;18.996;2022-08-06T08:31:36;2.23;;;1.17;;
39356;SDS011;25077;50.302;18.996;2022-08-06T08:34:38;1.80;;;1.00;;
39356;SDS011;25077;50.302;18.996;2022-08-06T08:37:40;1.37;;;0.90;;
39356;SDS011;25077;50.302;18.996;2022-08-06T08:40:44;3.33;;;0.70;;
39356;SDS011;25077;50.302;18.996;2022-08-06T08:43:48;2.33;;;1.10;;
39356;SDS011;25077;50.302;18.996;2022-08-06T08:46:57;1.07;;;0.97;;
39356;SDS011;25077;50.302;18.996;2022-08-06T08:50:01;2.40;;;1.20;;
39356;SDS011;25077;50.302;18.996;2022-08-06T08:53:06;0.67;;;0.67;;
39356;SDS011;25077;50.302;18.996;2022-08-06T08:56:12;5.17;;;0.80;;
39356;SDS011;25077;50.302;18.996;2022-08-06T08:59:14;0.80;;;0.80;;
39356;SDS011;25077;50.302;18.996;2022-08-06T09:02:17;4.10;;;0.87;;
39356;SDS011;25077;50.302;18.996;2022-08-06T09:05:20;1.80;;;0.90;;
39356;SDS011;25077;50.302;18.996;2022-08-06T09:08:22;1.00;;;0.90;;
39356;SDS011;25077;50.302;18.996;2022-08-06T09:11:26;2.20;;;1.80;;
39356;SDS011;25077;50.302;18.996;2022-08-06T09:14:28;1.27;;;0.87;;
39356;SDS011;25077;50.302;18.996;2022-08-06T09:17:30;0.87;;;0.80;;
39356;SDS011;25077;50.302;18.996;2022-08-06T09:20:33;2.17;;;0.80;;
39356;SDS011;25077;50.302;18.996;2022-08-06T09:23:36;1.77;;;0.60;;
39356;SDS011;25077;50.302;18.996;2022-08-06T09:26:42;1.50;;;0.73;;
39356;SDS011;25077;50.302;18.996;2022-08-06T09:30:04;3.10;;;1.40;;
39356;SDS011;25077;50.302;18.996;2022-08-06T09:33:10;0.93;;;0.77;;
39356;SDS011;25077;50.302;18.996;2022-08-06T09:36:13;2.30;;;1.00;;
39356;SDS011;25077;50.302;18.996;2022-08-06T09:39:15;1.53;;;1.10;;
39356;SDS011;25077;50.302;18.996;2022-08-06T09:42:34;2.57;;;0.80;;
39356;SDS011;25077;50.302;18.996;2022-08-06T09:45:38;2.07;;;1.00;;
39356;SDS011;25077;50.302;18.996;2022-08-06T09:48:55;2.27;;;1.10;;
39356;SDS011;25077;50.302;18.996;2022-08-06T09:52:11;1.00;;;0.90;;
39356;SDS011;25077;50.302;18.996;2022-08-06T09:55:19;2.80;;;1.00;;
39356;SDS011;25077;50.302;18.996;2022-08-06T09:58:32;1.00;;;0.90;;
39356;SDS011;25077;50.302;18.996;2022-08-06T10:01:39;2.00;;;1.07;;
39356;SDS011;25077;50.302;18.996;2022-08-06T10:04:42;2.20;;;1.03;;
39356;SDS011;25077;50.302;18.996;2022-08-06T10:07:44;3.43;;;1.10;;
39356;SDS011;25077;50.302;18.996;2022-08-06T10:10:47;1.13;;;1.00;;
39356;SDS011;25077;50.302;18.996;2022-08-06T10:13:53;1.83;;;1.10;;
39356;SDS011;25077;50.302;18.996;2022-08-06T10:17:02;3.53;;;1.10;;
39356;SDS011;25077;50.302;18.996;2022-08-06T10:20:06;1.63;;;0.87;;
39356;SDS011;25077;50.302;18.996;2022-08-06T10:23:11;1.53;;;0.80;;
39356;SDS011;25077;50.302;18.996;2022-08-06T10:26:16;1.27;;;0.73;;
39356;SDS011;25077;50.302;18.996;2022-08-06T10:29:21;0.70;;;0.67;;
39356;SDS011;25077;50.302;18.996;2022-08-06T10:32:25;2.00;;;0.90;;
39356;SDS011;25077;50.302;18.996;2022-08-06T10:35:31;1.47;;;0.80;;
39356;SDS011;25077;50.302;18.996;2022-08-06T10:38:34;3.00;;;0.90;;
39356;SDS011;25077;50.302;18.996;2022-08-06T10:41:38;1.17;;;0.93;;
39356;SDS011;25077;50.302;18.996;2022-08-06T10:44:42;1.13;;;1.00;;
39356;SDS011;25077;50.302;18.996;2022-08-06T10:47:46;3.37;;;1.13;;
39356;SDS011;25077;50.302;18.996;2022-08-06T10:50:49;4.30;;;1.20;;
39356;SDS011;25077;50.302;18.996;2022-08-06T10:53:52;4.10;;;1.20;;
39356;SDS011;25077;50.302;18.996;2022-08-06T10:56:54;2.37;;;0.83;;
39356;SDS011;25077;50.302;18.996;2022-08-06T10:59:58;2.73;;;1.10;;
39356;SDS011;25077;50.302;18.996;2022-08-06T11:03:05;1.10;;;1.00;;
39356;SDS011;25077;50.302;18.996;2022-08-06T11:06:18;1.50;;;1.10;;
39356;SDS011;25077;50.302;18.996;2022-08-06T11:09:46;1.03;;;0.83;;
39356;SDS011;25077;50.302;18.996;2022-08-06T11:13:02;1.40;;;1.07;;
39356;SDS011;25077;50.302;18.996;2022-08-06T11:16:22;4.20;;;1.00;;
39356;SDS011;25077;50.302;18.996;2022-08-06T11:19:38;4.07;;;1.27;;
39356;SDS011;25077;50.302;18.996;2022-08-06T11:22:41;2.17;;;1.30;;
39356;SDS011;25077;50.302;18.996;2022-08-06T11:25:43;1.13;;;1.00;;
39356;SDS011;25077;50.302;18.996;2022-08-06T11:28:56;1.53;;;1.17;;
39356;SDS011;25077;50.302;18.996;2022-08-06T11:32:01;2.73;;;1.10;;
39356;SDS011;25077;50.302;18.996;2022-08-06T11:38:55;2.50;;;1.60;;
39356;SDS011;25077;50.302;18.996;2022-08-06T11:42:00;2.90;;;1.90;;
39356;SDS011;25077;50.302;18.996;2022-08-06T11:45:03;2.27;;;1.70;;
39356;SDS011;25077;50.302;18.996;2022-08-06T11:48:07;3.03;;;2.23;;
39356;SDS011;25077;50.302;18.996;2022-08-06T11:51:35;3.60;;;1.90;;
39356;SDS011;25077;50.302;18.996;2022-08-06T11:58:19;4.03;;;2.57;;
39356;SDS011;25077;50.302;18.996;2022-08-06T12:01:27;4.10;;;2.50;;
39356;SDS011;25077;50.302;18.996;2022-08-06T12:04:47;5.13;;;2.87;;
39356;SDS011;25077;50.302;18.996;2022-08-06T12:11:23;2.97;;;2.53;;
39356;SDS011;25077;50.302;18.996;2022-08-06T12:14:37;6.60;;;2.33;;
39356;SDS011;25077;50.302;18.996;2022-08-06T12:17:42;4.70;;;2.57;;
39356;SDS011;25077;50.302;18.996;2022-08-06T12:20:59;4.70;;;2.90;;
39356;SDS011;25077;50.302;18.996;2022-08-06T12:24:01;4.63;;;2.70;;
39356;SDS011;25077;50.302;18.996;2022-08-06T12:27:05;4.27;;;2.57;;
39356;SDS011;25077;50.302;18.996;2022-08-06T12:30:08;4.50;;;2.80;;
39356;SDS011;25077;50.302;18.996;2022-08-06T12:33:11;4.83;;;2.60;;
39356;SDS011;25077;50.302;18.996;2022-08-06T12:36:14;4.73;;;3.20;;
39356;SDS011;25077;50.302;18.996;2022-08-06T12:39:16;8.70;;;3.23;;
39356;SDS011;25077;50.302;18.996;2022-08-06T12:42:22;7.93;;;3.90;;
39356;SDS011;25077;50.302;18.996;2022-08-06T12:45:24;4.03;;;3.00;;
39356;SDS011;25077;50.302;18.996;2022-08-06T12:48:27;7.80;;;3.37;;
39356;SDS011;25077;50.302;18.996;2022-08-06T12:51:31;8.00;;;2.83;;
39356;SDS011;25077;50.302;18.996;2022-08-06T12:54:33;6.40;;;3.17;;
39356;SDS011;25077;50.302;18.996;2022-08-06T12:57:35;4.23;;;2.77;;
39356;SDS011;25077;50.302;18.996;2022-08-06T13:00:37;7.57;;;3.40;;
39356;SDS011;25077;50.302;18.996;2022-08-06T13:03:41;2.80;;;2.33;;
39356;SDS011;25077;50.302;18.996;2022-08-06T13:06:48;4.60;;;2.53;;
39356;SDS011;25077;50.302;18.996;2022-08-06T13:09:51;7.07;;;3.33;;
39356;SDS011;25077;50.302;18.996;2022-08-06T13:12:53;3.80;;;2.80;;
39356;SDS011;25077;50.302;18.996;2022-08-06T13:15:59;3.73;;;2.80;;
39356;SDS011;25077;50.302;18.996;2022-08-06T13:19:03;6.63;;;2.90;;
39356;SDS011;25077;50.302;18.996;2022-08-06T13:22:07;8.13;;;4.57;;
39356;SDS011;25077;50.302;18.996;2022-08-06T13:25:11;8.40;;;3.63;;
39356;SDS011;25077;50.302;18.996;2022-08-06T13:28:18;4.93;;;3.20;;
39356;SDS011;25077;50.302;18.996;2022-08-06T13:31:20;5.93;;;3.50;;
39356;SDS011;25077;50.302;18.996;2022-08-06T13:34:23;8.67;;;3.47;;
39356;SDS011;25077;50.302;18.996;2022-08-06T13:37:45;5.07;;;3.43;;
39356;SDS011;25077;50.302;18.996;2022-08-06T13:40:49;4.33;;;3.10;;
39356;SDS011;25077;50.302;18.996;2022-08-06T13:43:51;4.93;;;3.50;;
39356;SDS011;25077;50.302;18.996;2022-08-06T13:46:53;5.57;;;3.00;;
39356;SDS011;25077;50.302;18.996;2022-08-06T13:49:55;5.53;;;2.60;;
39356;SDS011;25077;50.302;18.996;2022-08-06T13:52:59;4.83;;;2.43;;
39356;SDS011;25077;50.302;18.996;2022-08-06T13:56:00;4.10;;;2.20;;
39356;SDS011;25077;50.302;18.996;2022-08-06T13:59:03;7.80;;;2.40;;
39356;SDS011;25077;50.302;18.996;2022-08-06T14:02:05;3.83;;;2.10;;
39356;SDS011;25077;50.302;18.996;2022-08-06T14:05:07;2.90;;;1.87;;
39356;SDS011;25077;50.302;18.996;2022-08-06T14:08:10;2.30;;;1.60;;
39356;SDS011;25077;50.302;18.996;2022-08-06T14:11:12;2.33;;;1.80;;
39356;SDS011;25077;50.302;18.996;2022-08-06T14:14:14;4.17;;;1.77;;
39356;SDS011;25077;50.302;18.996;2022-08-06T14:17:18;4.30;;;2.20;;
39356;SDS011;25077;50.302;18.996;2022-08-06T14:20:20;5.20;;;2.30;;
39356;SDS011;25077;50.302;18.996;2022-08-06T14:23:24;4.23;;;2.43;;
39356;SDS011;25077;50.302;18.996;2022-08-06T14:26:26;4.67;;;2.37;;
39356;SDS011;25077;50.302;18.996;2022-08-06T14:29:27;3.33;;;1.73;;
39356;SDS011;25077;50.302;18.996;2022-08-06T14:32:29;4.03;;;2.13;;
39356;SDS011;25077;50.302;18.996;2022-08-06T14:35:31;4.47;;;2.03;;
39356;SDS011;25077;50.302;18.996;2022-08-06T14:38:35;2.97;;;2.00;;
39356;SDS011;25077;50.302;18.996;2022-08-06T14:41:37;6.37;;;2.00;;
39356;SDS011;25077;50.302;18.996;2022-08-06T14:44:57;7.03;;;2.43;;
39356;SDS011;25077;50.302;18.996;2022-08-06T14:48:02;9.43;;;2.53;;
39356;SDS011;25077;50.302;18.996;2022-08-06T14:51:05;4.20;;;1.97;;
39356;SDS011;25077;50.302;18.996;2022-08-06T14:54:08;7.53;;;2.10;;
39356;SDS011;25077;50.302;18.996;2022-08-06T14:57:10;10.73;;;2.67;;
39356;SDS011;25077;50.302;18.996;2022-08-06T15:00:12;4.70;;;2.77;;
39356;SDS011;25077;50.302;18.996;2022-08-06T15:03:15;4.80;;;2.83;;
39356;SDS011;25077;50.302;18.996;2022-08-06T15:06:17;8.23;;;2.43;;
39356;SDS011;25077;50.302;18.996;2022-08-06T15:09:20;5.63;;;2.63;;
39356;SDS011;25077;50.302;18.996;2022-08-06T15:12:22;5.13;;;2.30;;
39356;SDS011;25077;50.302;18.996;2022-08-06T15:15:24;4.87;;;2.30;;
39356;SDS011;25077;50.302;18.996;2022-08-06T15:18:26;4.47;;;2.30;;
39356;SDS011;25077;50.302;18.996;2022-08-06T15:21:28;5.20;;;2.20;;
39356;SDS011;25077;50.302;18.996;2022-08-06T15:24:31;5.27;;;1.90;;
39356;SDS011;25077;50.302;18.996;2022-08-06T15:27:34;3.17;;;1.60;;
39356;SDS011;25077;50.302;18.996;2022-08-06T15:30:37;2.70;;;1.60;;
39356;SDS011;25077;50.302;18.996;2022-08-06T15:33:39;2.57;;;1.60;;
39356;SDS011;25077;50.302;18.996;2022-08-06T15:36:42;2.87;;;1.50;;
39356;SDS011;25077;50.302;18.996;2022-08-06T15:39:45;4.53;;;1.70;;
39356;SDS011;25077;50.302;18.996;2022-08-06T15:42:47;3.90;;;1.57;;
39356;SDS011;25077;50.302;18.996;2022-08-06T15:45:49;4.60;;;1.60;;
39356;SDS011;25077;50.302;18.996;2022-08-06T15:48:52;4.57;;;1.80;;
39356;SDS011;25077;50.302;18.996;2022-08-06T15:51:54;4.00;;;1.97;;
39356;SDS011;25077;50.302;18.996;2022-08-06T15:54:58;2.10;;;1.40;;
39356;SDS011;25077;50.302;18.996;2022-08-06T15:58:00;2.10;;;1.53;;
39356;SDS011;25077;50.302;18.996;2022-08-06T16:01:02;4.07;;;1.80;;
39356;SDS011;25077;50.302;18.996;2022-08-06T16:04:04;2.03;;;1.33;;
39356;SDS011;25077;50.302;18.996;2022-08-06T16:07:06;3.93;;;1.50;;
39356;SDS011;25077;50.302;18.996;2022-08-06T16:10:09;2.43;;;1.50;;
39356;SDS011;25077;50.302;18.996;2022-08-06T16:13:12;3.33;;;1.63;;
39356;SDS011;25077;50.302;18.996;2022-08-06T16:16:18;5.17;;;1.50;;
39356;SDS011;25077;50.302;18.996;2022-08-06T16:19:20;5.93;;;2.17;;
39356;SDS011;25077;50.302;18.996;2022-08-06T16:22:22;4.50;;;1.70;;
39356;SDS011;25077;50.302;18.996;2022-08-06T16:25:26;2.43;;;1.57;;
39356;SDS011;25077;50.302;18.996;2022-08-06T16:28:28;3.93;;;1.70;;
39356;SDS011;25077;50.302;18.996;2022-08-06T16:31:30;2.27;;;1.30;;
39356;SDS011;25077;50.302;18.996;2022-08-06T16:34:32;2.63;;;1.67;;
39356;SDS011;25077;50.302;18.996;2022-08-06T16:37:34;4.63;;;1.70;;
39356;SDS011;25077;50.302;18.996;2022-08-06T16:40:38;2.97;;;1.70;;
39356;SDS011;25077;50.302;18.996;2022-08-06T16:43:40;2.23;;;1.73;;
39356;SDS011;25077;50.302;18.996;2022-08-06T16:46:42;3.83;;;1.63;;
39356;SDS011;25077;50.302;18.996;2022-08-06T16:49:44;3.00;;;1.77;;
39356;SDS011;25077;50.302;18.996;2022-08-06T16:52:46;6.20;;;1.70;;
39356;SDS011;25077;50.302;18.996;2022-08-06T16:55:50;1.50;;;1.40;;
39356;SDS011;25077;50.302;18.996;2022-08-06T16:58:53;2.87;;;1.40;;
39356;SDS011;25077;50.302;18.996;2022-08-06T17:01:55;4.43;;;1.80;;
39356;SDS011;25077;50.302;18.996;2022-08-06T17:05:15;4.37;;;1.50;;
39356;SDS011;25077;50.302;18.996;2022-08-06T17:08:18;3.60;;;1.50;;
39356;SDS011;25077;50.302;18.996;2022-08-06T17:11:22;3.63;;;1.63;;
39356;SDS011;25077;50.302;18.996;2022-08-06T17:14:23;3.57;;;1.60;;
39356;SDS011;25077;50.302;18.996;2022-08-06T17:17:27;2.97;;;1.80;;
39356;SDS011;25077;50.302;18.996;2022-08-06T17:20:30;1.93;;;1.40;;
39356;SDS011;25077;50.302;18.996;2022-08-06T17:23:32;4.80;;;1.77;;
39356;SDS011;25077;50.302;18.996;2022-08-06T17:26:36;3.07;;;1.80;;
39356;SDS011;25077;50.302;18.996;2022-08-06T17:29:37;4.37;;;1.97;;
39356;SDS011;25077;50.302;18.996;2022-08-06T17:32:40;4.90;;;1.70;;
39356;SDS011;25077;50.302;18.996;2022-08-06T17:35:42;3.37;;;1.83;;
39356;SDS011;25077;50.302;18.996;2022-08-06T17:38:44;3.33;;;1.63;;
39356;SDS011;25077;50.302;18.996;2022-08-06T17:41:47;4.33;;;2.00;;
39356;SDS011;25077;50.302;18.996;2022-08-06T17:44:49;5.17;;;2.20;;
39356;SDS011;25077;50.302;18.996;2022-08-06T17:47:51;8.37;;;2.30;;
39356;SDS011;25077;50.302;18.996;2022-08-06T17:50:53;6.93;;;2.00;;
39356;SDS011;25077;50.302;18.996;2022-08-06T17:53:55;8.53;;;2.53;;
39356;SDS011;25077;50.302;18.996;2022-08-06T17:56:58;3.33;;;1.93;;
39356;SDS011;25077;50.302;18.996;2022-08-06T18:00:00;4.83;;;1.93;;
39356;SDS011;25077;50.302;18.996;2022-08-06T18:03:12;4.03;;;1.80;;
39356;SDS011;25077;50.302;18.996;2022-08-06T18:06:14;3.80;;;1.97;;
39356;SDS011;25077;50.302;18.996;2022-08-06T18:09:16;3.83;;;2.13;;
39356;SDS011;25077;50.302;18.996;2022-08-06T18:12:20;3.97;;;2.23;;
39356;SDS011;25077;50.302;18.996;2022-08-06T18:15:22;4.83;;;2.10;;
39356;SDS011;25077;50.302;18.996;2022-08-06T18:18:25;7.47;;;2.20;;
39356;SDS011;25077;50.302;18.996;2022-08-06T18:21:27;3.40;;;2.30;;
39356;SDS011;25077;50.302;18.996;2022-08-06T18:24:29;4.20;;;2.27;;